createdAt,value
2018-08-14T00:01:12.926Z,100.00
2018-08-14T00:03:41.357Z,100.00
2018-08-14T00:06:09.782Z,100.00
2018-08-14T00:08:38.208Z,100.00
2018-08-14T00:11:06.791Z,100.00
2018-08-14T00:13:35.221Z,100.00
2018-08-14T00:16:03.748Z,100.00
2018-08-14T00:18:32.229Z,100.00
2018-08-14T00:21:00.697Z,100.00
2018-08-14T00:23:29.191Z,100.00
2018-08-14T00:25:57.719Z,100.00
2018-08-14T00:28:26.128Z,100.00
2018-08-14T00:30:54.558Z,100.00
2018-08-14T00:33:23.097Z,100.00
2018-08-14T00:35:51.600Z,100.00
2018-08-14T00:38:20.086Z,100.00
2018-08-14T00:40:48.525Z,100.00
2018-08-14T00:43:17.048Z,100.00
2018-08-14T00:45:45.541Z,100.00
2018-08-14T00:48:14.052Z,100.00
2018-08-14T00:50:42.521Z,100.00
2018-08-14T00:53:10.981Z,100.00
2018-08-14T00:55:40.129Z,100.00
2018-08-14T00:58:08.861Z,100.00
2018-08-14T01:00:37.450Z,100.00
2018-08-14T01:03:06.501Z,100.00
2018-08-14T01:05:34.976Z,100.00
2018-08-14T01:08:03.464Z,100.00
2018-08-14T01:10:31.905Z,100.00
2018-08-14T01:13:00.563Z,100.00
2018-08-14T01:15:30.239Z,100.00
2018-08-14T01:17:59.275Z,100.00
2018-08-14T01:20:29.422Z,100.00
2018-08-14T01:22:57.927Z,100.00
2018-08-14T01:25:26.415Z,100.00
2018-08-14T01:27:55.169Z,100.00
2018-08-14T01:30:30.226Z,100.00
2018-08-14T01:32:58.770Z,100.00
2018-08-14T01:35:27.736Z,100.00
2018-08-14T01:37:56.277Z,100.00
2018-08-14T01:40:24.828Z,100.00
2018-08-14T01:42:53.561Z,100.00
2018-08-14T01:45:22.073Z,100.00
2018-08-14T01:47:50.691Z,100.00
2018-08-14T01:50:22.287Z,100.00
2018-08-14T01:52:50.821Z,100.00
2018-08-14T01:55:20.451Z,100.00
2018-08-14T01:57:49.191Z,100.00
2018-08-14T02:00:24.810Z,100.00
2018-08-14T02:02:53.362Z,100.00
2018-08-14T02:05:21.934Z,100.00
2018-08-14T02:07:50.437Z,100.00
2018-08-14T02:10:20.237Z,100.00
2018-08-14T02:12:48.949Z,100.00
2018-08-14T02:15:18.350Z,100.00
2018-08-14T02:17:46.964Z,100.00
2018-08-14T02:20:19.900Z,100.00
2018-08-14T02:22:49.121Z,100.00
2018-08-14T02:25:17.705Z,100.00
2018-08-14T02:27:46.373Z,100.00
2018-08-14T02:30:15.667Z,100.00
2018-08-14T02:32:44.234Z,100.00
2018-08-14T02:35:13.184Z,100.00
2018-08-14T02:37:41.737Z,100.00
2018-08-14T02:40:16.423Z,100.00
2018-08-14T02:42:45.221Z,100.00
2018-08-14T02:45:13.713Z,100.00
2018-08-14T02:47:42.171Z,100.00
2018-08-14T02:50:11.417Z,100.00
2018-08-14T02:52:40.069Z,100.00
2018-08-14T02:55:10.759Z,100.00
2018-08-14T02:57:39.255Z,100.00
2018-08-14T03:00:10.657Z,100.00
2018-08-14T03:02:39.551Z,100.00
2018-08-14T03:05:08.006Z,100.00
2018-08-14T03:07:36.526Z,100.00
2018-08-14T03:10:07.015Z,100.00
2018-08-14T03:12:35.513Z,99.85
2018-08-14T03:15:04.098Z,100.00
2018-08-14T03:17:32.637Z,100.00
2018-08-14T03:20:01.129Z,100.00
2018-08-14T03:22:29.614Z,100.00
2018-08-14T03:24:58.132Z,100.00
2018-08-14T03:27:26.615Z,100.00
2018-08-14T03:29:55.106Z,100.00
2018-08-14T03:32:23.609Z,100.00
2018-08-14T03:34:52.311Z,100.00
2018-08-14T03:37:21.198Z,99.89
2018-08-14T03:39:49.742Z,100.00
2018-08-14T03:42:18.604Z,100.00
2018-08-14T03:44:47.099Z,99.72
2018-08-14T03:47:15.564Z,99.48
2018-08-14T03:49:44.066Z,99.67
2018-08-14T03:52:12.550Z,99.03
2018-08-14T03:54:41.081Z,99.38
2018-08-14T03:57:09.528Z,99.42
2018-08-14T03:59:38.048Z,99.85
2018-08-14T04:02:06.612Z,99.65
2018-08-14T04:04:35.091Z,100.00
2018-08-14T04:07:03.539Z,98.89
2018-08-14T04:09:32.014Z,99.12
2018-08-14T04:12:00.477Z,100.00
2018-08-14T04:14:28.920Z,100.00
2018-08-14T04:16:57.460Z,100.00
2018-08-14T04:19:26.008Z,100.00
2018-08-14T04:21:54.453Z,100.00
2018-08-14T04:24:22.871Z,100.00
2018-08-14T04:26:52.350Z,100.00
2018-08-14T04:29:20.773Z,100.00
2018-08-14T04:31:49.259Z,100.00
2018-08-14T04:34:17.727Z,100.00
2018-08-14T04:36:46.253Z,100.00
2018-08-14T04:39:14.689Z,100.00
2018-08-14T04:41:43.216Z,100.00
2018-08-14T04:44:11.652Z,100.00
2018-08-14T04:46:40.107Z,100.00
2018-08-14T04:49:08.593Z,100.00
2018-08-14T04:51:37.025Z,100.00
2018-08-14T04:54:05.540Z,100.00
2018-08-14T04:56:34.050Z,99.99
2018-08-14T04:59:02.598Z,100.00
2018-08-14T05:01:31.630Z,98.96
2018-08-14T05:04:00.114Z,98.87
2018-08-14T05:06:28.553Z,98.60
2018-08-14T05:08:57.108Z,98.72
2018-08-14T05:11:25.608Z,98.45
2018-08-14T05:13:57.690Z,98.63
2018-08-14T05:16:26.682Z,98.50
2018-08-14T05:18:55.560Z,98.66
2018-08-14T05:21:24.047Z,98.60
2018-08-14T05:23:52.465Z,97.85
2018-08-14T05:26:20.932Z,98.28
2018-08-14T05:28:52.657Z,98.81
2018-08-14T05:31:21.169Z,98.40
2018-08-14T05:33:49.762Z,99.07
2018-08-14T05:36:18.302Z,98.54
2018-08-14T05:38:46.984Z,99.00
2018-08-14T05:41:15.444Z,98.95
2018-08-14T05:43:43.894Z,99.26
2018-08-14T05:46:12.381Z,98.58
2018-08-14T05:48:40.808Z,98.92
2018-08-14T05:51:09.258Z,98.38
2018-08-14T05:53:37.744Z,98.13
2018-08-14T05:56:06.225Z,98.37
2018-08-14T05:58:34.809Z,97.86
2018-08-14T06:01:03.328Z,97.92
2018-08-14T06:03:31.787Z,97.58
2018-08-14T06:06:01.206Z,98.30
2018-08-14T06:08:29.961Z,98.16
2018-08-14T06:10:58.874Z,99.07
2018-08-14T06:13:27.904Z,98.27
2018-08-14T06:16:02.506Z,99.15
2018-08-14T06:18:30.974Z,99.01
2018-08-14T06:21:00.742Z,99.83
2018-08-14T06:23:31.154Z,98.55
2018-08-14T06:26:01.569Z,98.79
2018-08-14T06:28:32.098Z,99.07
2018-08-14T06:31:02.219Z,98.93
2018-08-14T06:33:31.003Z,98.27
2018-08-14T06:36:00.000Z,98.32
2018-08-14T06:38:29.598Z,98.43
2018-08-14T06:41:02.905Z,98.64
2018-08-14T06:43:33.765Z,98.07
2018-08-14T06:46:03.504Z,98.25
2018-08-14T06:48:34.125Z,98.35
2018-08-14T06:51:04.445Z,98.52
2018-08-14T06:53:33.155Z,98.01
2018-08-14T06:56:03.027Z,98.66
2018-08-14T06:58:36.730Z,98.97
2018-08-14T07:01:05.269Z,98.83
2018-08-14T07:03:34.242Z,97.95
2018-08-14T07:06:02.761Z,97.95
2018-08-14T07:08:32.333Z,98.70
2018-08-14T07:11:01.563Z,98.15
2018-08-14T07:13:32.188Z,97.82
2018-08-14T07:16:02.259Z,97.75
2018-08-14T07:18:31.872Z,98.31
2018-08-14T07:21:01.412Z,99.37
2018-08-14T07:23:31.826Z,100.00
2018-08-14T07:26:00.925Z,100.00
2018-08-14T07:28:30.236Z,100.00
2018-08-14T07:31:01.358Z,100.00
2018-08-14T07:33:30.059Z,100.00
2018-08-14T07:35:59.090Z,100.00
2018-08-14T07:38:28.433Z,100.00
2018-08-14T07:40:57.870Z,100.00
2018-08-14T07:43:27.220Z,100.00
2018-08-14T07:45:56.566Z,100.00
2018-08-14T07:48:25.805Z,99.06
2018-08-14T07:50:56.729Z,98.46
2018-08-14T07:53:26.007Z,98.25
2018-08-14T07:55:55.557Z,97.58
2018-08-14T07:58:26.172Z,98.09
2018-08-14T08:00:56.070Z,98.39
2018-08-14T08:03:25.456Z,97.04
2018-08-14T08:05:59.663Z,96.80
2018-08-14T08:08:29.022Z,95.83
2018-08-14T08:10:58.862Z,95.59
2018-08-14T08:13:27.728Z,93.75
2018-08-14T08:15:57.371Z,90.89
2018-08-14T08:18:28.862Z,89.72
2018-08-14T08:20:58.714Z,89.40
2018-08-14T08:23:28.468Z,90.42
2018-08-14T08:25:57.088Z,90.52
2018-08-14T08:28:28.001Z,90.48
2018-08-14T08:30:58.112Z,90.48
2018-08-14T08:33:26.854Z,91.75
2018-08-14T08:35:56.713Z,91.12
2018-08-14T08:38:26.386Z,90.93
2018-08-14T08:40:56.423Z,91.07
2018-08-14T08:43:25.776Z,89.87
2018-08-14T08:45:54.881Z,89.77
2018-08-14T08:48:24.746Z,89.40
2018-08-14T08:50:53.644Z,89.52
2018-08-14T08:53:23.845Z,90.00
2018-08-14T08:55:52.920Z,91.72
2018-08-14T08:58:22.352Z,93.63
2018-08-14T09:00:52.234Z,95.01
2018-08-14T09:03:25.246Z,95.03
2018-08-14T09:05:55.898Z,95.20
2018-08-14T09:08:26.152Z,94.38
2018-08-14T09:10:56.126Z,93.47
2018-08-14T09:13:27.347Z,92.61
2018-08-14T09:15:56.714Z,93.79
2018-08-14T09:18:25.567Z,93.54
2018-08-14T09:20:56.974Z,92.35
2018-08-14T09:23:26.993Z,92.03
2018-08-14T09:25:57.378Z,91.15
2018-08-14T09:28:26.449Z,90.26
2018-08-14T09:30:55.557Z,89.47
2018-08-14T09:33:25.006Z,89.39
2018-08-14T09:35:54.431Z,89.34
2018-08-14T09:38:23.317Z,90.19
2018-08-14T09:40:53.022Z,90.10
2018-08-14T09:43:22.468Z,88.86
2018-08-14T09:45:52.073Z,88.51
2018-08-14T09:48:24.805Z,88.94
2018-08-14T09:50:53.423Z,87.46
2018-08-14T09:53:24.120Z,84.79
2018-08-14T09:55:53.653Z,85.06
2018-08-14T09:58:23.769Z,85.30
2018-08-14T10:00:58.952Z,84.04
2018-08-14T10:03:36.545Z,84.00
2018-08-14T10:06:10.670Z,85.65
2018-08-14T10:08:39.735Z,85.63
2018-08-14T10:11:10.201Z,86.75
2018-08-14T10:13:40.068Z,85.08
2018-08-14T10:16:09.922Z,83.41
2018-08-14T10:18:38.825Z,84.13
2018-08-14T10:21:08.083Z,83.18
2018-08-14T10:23:38.043Z,83.45
2018-08-14T10:26:08.005Z,83.48
2018-08-14T10:28:37.553Z,83.47
2018-08-14T10:31:07.155Z,83.37
2018-08-14T10:33:37.088Z,82.21
2018-08-14T10:36:06.994Z,80.77
2018-08-14T10:38:36.803Z,80.96
2018-08-14T10:41:06.189Z,79.71
2018-08-14T10:43:35.007Z,80.58
2018-08-14T10:46:04.472Z,79.98
2018-08-14T10:48:34.535Z,78.53
2018-08-14T10:51:03.406Z,77.37
2018-08-14T10:53:32.912Z,78.88
2018-08-14T10:56:01.508Z,77.03
2018-08-14T10:58:30.872Z,77.39
2018-08-14T11:00:59.854Z,76.78
2018-08-14T11:03:28.839Z,76.72
2018-08-14T11:05:58.061Z,76.11
2018-08-14T11:08:27.390Z,75.94
2018-08-14T11:11:02.029Z,76.51
2018-08-14T11:13:30.950Z,75.71
2018-08-14T11:16:00.167Z,75.78
2018-08-14T11:18:28.864Z,75.91
2018-08-14T11:20:58.886Z,73.96
2018-08-14T11:23:28.821Z,72.49
2018-08-14T11:25:58.839Z,73.62
2018-08-14T11:28:27.798Z,74.87
2018-08-14T11:30:57.312Z,73.76
2018-08-14T11:33:27.343Z,72.10
2018-08-14T11:36:01.262Z,72.05
2018-08-14T11:38:30.565Z,72.46
2018-08-14T11:41:00.679Z,71.95
2018-08-14T11:43:31.913Z,72.33
2018-08-14T11:46:00.500Z,71.92
2018-08-14T11:48:30.090Z,72.37
2018-08-14T11:50:59.196Z,72.69
2018-08-14T11:53:32.987Z,71.97
2018-08-14T11:56:03.163Z,71.33
2018-08-14T11:58:32.290Z,69.97
2018-08-14T12:01:01.774Z,70.37
2018-08-14T12:03:32.304Z,70.63
2018-08-14T12:06:02.147Z,70.65
2018-08-14T12:08:32.270Z,71.02
2018-08-14T12:11:01.123Z,71.49
2018-08-14T12:13:30.596Z,70.20
2018-08-14T12:16:01.286Z,69.40
2018-08-14T12:18:30.510Z,66.60
2018-08-14T12:20:59.894Z,63.99
2018-08-14T12:23:28.447Z,66.00
2018-08-14T12:25:57.503Z,68.11
2018-08-14T12:28:27.596Z,69.73
2018-08-14T12:30:57.010Z,71.11
2018-08-14T12:33:25.747Z,71.57
2018-08-14T12:35:54.325Z,71.15
2018-08-14T12:38:27.406Z,68.59
2018-08-14T12:40:56.634Z,67.73
2018-08-14T12:43:27.420Z,68.24
2018-08-14T12:46:02.381Z,66.36
2018-08-14T12:48:32.485Z,65.05
2018-08-14T12:51:01.610Z,64.47
2018-08-14T12:53:30.910Z,64.17
2018-08-14T12:56:00.115Z,64.29
2018-08-14T12:58:30.654Z,62.46
2018-08-14T13:01:00.025Z,61.79
2018-08-14T13:03:28.681Z,60.54
2018-08-14T13:05:57.213Z,63.51
2018-08-14T13:08:26.167Z,62.76
2018-08-14T13:10:55.334Z,62.38
2018-08-14T13:13:24.134Z,61.33
2018-08-14T13:15:52.574Z,61.15
2018-08-14T13:18:21.042Z,62.41
2018-08-14T13:20:49.481Z,63.63
2018-08-14T13:23:17.973Z,64.42
2018-08-14T13:25:46.489Z,65.35
2018-08-14T13:28:14.925Z,64.68
2018-08-14T13:30:43.468Z,64.73
2018-08-14T13:33:11.873Z,64.51
2018-08-14T13:35:40.338Z,64.81
2018-08-14T13:38:08.812Z,64.99
2018-08-14T13:40:37.333Z,65.21
2018-08-14T13:43:05.876Z,64.87
2018-08-14T13:45:34.350Z,63.48
2018-08-14T13:48:02.863Z,64.33
2018-08-14T13:50:31.393Z,64.36
2018-08-14T13:52:59.913Z,66.01
2018-08-14T13:55:28.408Z,66.78
2018-08-14T13:57:56.921Z,67.65
2018-08-14T14:00:27.429Z,67.25
2018-08-14T14:02:55.903Z,67.33
2018-08-14T14:05:24.338Z,67.36
2018-08-14T14:07:52.804Z,67.69
2018-08-14T14:10:21.889Z,71.88
2018-08-14T14:12:50.365Z,74.45
2018-08-14T14:15:23.127Z,75.10
2018-08-14T14:17:52.678Z,77.60
2018-08-14T14:20:22.617Z,78.98
2018-08-14T14:22:51.287Z,79.57
2018-08-14T14:25:19.805Z,80.72
2018-08-14T14:27:48.399Z,81.91
2018-08-14T14:30:17.580Z,85.03
2018-08-14T14:32:46.985Z,87.40
2018-08-14T14:35:15.625Z,87.22
2018-08-14T14:37:44.229Z,86.94
2018-08-14T14:40:19.897Z,87.28
2018-08-14T14:42:51.961Z,85.91
2018-08-14T14:45:20.420Z,84.71
2018-08-14T14:47:48.982Z,84.97
2018-08-14T14:50:17.485Z,85.70
2018-08-14T14:52:46.272Z,85.15
2018-08-14T14:55:17.950Z,85.38
2018-08-14T14:57:47.702Z,87.27
2018-08-14T15:00:24.065Z,88.21
2018-08-14T15:02:54.898Z,88.22
2018-08-14T15:05:23.693Z,88.51
2018-08-14T15:07:52.497Z,90.13
2018-08-14T15:10:21.394Z,90.75
2018-08-14T15:12:49.947Z,91.01
2018-08-14T15:15:18.446Z,88.30
2018-08-14T15:17:47.601Z,87.17
2018-08-14T15:20:20.245Z,86.04
2018-08-14T15:22:49.810Z,85.77
2018-08-14T15:25:19.594Z,84.35
2018-08-14T15:29:33.261Z,83.72
2018-08-14T15:32:03.984Z,81.54
2018-08-14T15:34:33.765Z,80.81
2018-08-14T15:37:06.844Z,80.15
2018-08-14T15:39:35.332Z,78.98
2018-08-14T15:42:04.075Z,79.18
2018-08-14T15:44:32.572Z,79.80
2018-08-14T15:47:01.046Z,79.29
2018-08-14T15:49:29.756Z,79.09
2018-08-14T15:51:58.186Z,78.53
2018-08-14T15:54:26.811Z,78.17
2018-08-14T15:56:55.377Z,77.23
2018-08-14T15:59:23.878Z,77.68
2018-08-14T16:01:52.442Z,77.91
2018-08-14T16:04:20.983Z,77.55
2018-08-14T16:06:50.499Z,77.59
2018-08-14T16:09:21.561Z,77.49
2018-08-14T16:11:50.690Z,76.73
2018-08-14T16:14:25.820Z,77.03
2018-08-14T16:16:54.452Z,77.34
2018-08-14T16:21:50.863Z,78.03
2018-08-14T16:24:19.489Z,78.84
2018-08-14T16:26:48.031Z,79.48
2018-08-14T16:29:22.393Z,79.14
2018-08-14T16:31:50.969Z,79.58
2018-08-14T16:34:19.514Z,79.52
2018-08-14T16:36:48.138Z,78.95
2018-08-14T16:39:16.662Z,79.39
2018-08-14T16:41:45.641Z,80.88
2018-08-14T16:44:14.102Z,82.88
2018-08-14T16:46:42.692Z,83.54
2018-08-14T16:49:11.119Z,83.27
2018-08-14T16:51:39.729Z,84.43
2018-08-14T16:54:08.206Z,84.39
2018-08-14T16:56:36.668Z,85.54
2018-08-14T16:59:05.289Z,85.57
2018-08-14T17:01:33.950Z,85.99
2018-08-14T17:04:02.454Z,85.99
2018-08-14T17:06:30.917Z,85.31
2018-08-14T17:08:59.377Z,85.26
2018-08-14T17:11:28.919Z,84.42
2018-08-14T17:13:57.341Z,83.63
2018-08-14T17:16:25.809Z,83.00
2018-08-14T17:18:54.322Z,82.92
2018-08-14T17:21:21.573Z,82.16
2018-08-14T17:23:50.068Z,80.82
2018-08-14T17:26:18.487Z,80.06
2018-08-14T17:28:47.069Z,78.68
2018-08-14T17:31:15.534Z,79.50
2018-08-14T17:33:44.077Z,79.21
2018-08-14T17:36:12.538Z,78.46
2018-08-14T17:38:41.277Z,79.15
2018-08-14T17:41:10.183Z,79.47
2018-08-14T17:43:38.777Z,79.33
2018-08-14T17:46:07.230Z,79.24
2018-08-14T17:48:43.598Z,80.01
2018-08-14T17:51:12.051Z,80.34
2018-08-14T17:53:40.589Z,81.88
2018-08-14T17:56:09.076Z,81.25
2018-08-14T17:58:37.610Z,81.46
2018-08-14T18:01:07.156Z,81.31
2018-08-14T18:03:35.671Z,80.67
2018-08-14T18:06:04.130Z,81.64
2018-08-14T18:08:32.618Z,81.61
2018-08-14T18:11:01.050Z,81.68
2018-08-14T18:13:29.579Z,81.02
2018-08-14T18:15:58.161Z,81.57
2018-08-14T18:18:28.761Z,81.02
2018-08-14T18:20:57.225Z,81.47
2018-08-14T18:23:25.711Z,80.87
2018-08-14T18:25:54.184Z,81.04
2018-08-14T18:28:22.666Z,81.87
2018-08-14T18:30:51.102Z,81.38
2018-08-14T18:33:19.734Z,81.89
2018-08-14T18:35:48.389Z,81.64
2018-08-14T18:38:16.965Z,81.94
2018-08-14T18:40:45.507Z,82.13
2018-08-14T18:43:14.077Z,82.29
2018-08-14T18:45:42.517Z,82.21
2018-08-14T18:48:11.018Z,82.72
2018-08-14T18:50:39.567Z,82.86
2018-08-14T18:53:10.303Z,81.94
2018-08-14T18:55:38.786Z,82.24
2018-08-14T18:58:07.312Z,83.15
2018-08-14T19:00:35.816Z,82.82
2018-08-14T19:03:04.583Z,83.16
2018-08-14T19:05:33.578Z,83.14
2018-08-14T19:08:06.609Z,83.21
2018-08-14T19:10:35.567Z,83.67
2018-08-14T19:13:04.181Z,84.17
2018-08-14T19:15:35.681Z,83.81
2018-08-14T19:18:04.623Z,84.75
2018-08-14T19:20:33.233Z,84.97
2018-08-14T19:23:01.778Z,85.70
2018-08-14T19:25:31.377Z,85.27
2018-08-14T19:27:59.849Z,84.72
2018-08-14T19:30:28.341Z,85.03
2018-08-14T19:32:56.795Z,85.95
2018-08-14T19:35:25.330Z,86.43
2018-08-14T19:37:53.866Z,86.35
2018-08-14T19:40:25.625Z,86.22
2018-08-14T19:42:54.511Z,86.22
2018-08-14T19:45:23.025Z,86.97
2018-08-14T19:47:51.628Z,87.16
2018-08-14T19:50:20.652Z,87.88
2018-08-14T19:52:49.124Z,87.85
2018-08-14T19:55:19.143Z,87.88
2018-08-14T19:57:49.132Z,88.20
2018-08-14T20:00:27.629Z,88.50
2018-08-14T20:02:56.599Z,88.23
2018-08-14T20:05:25.309Z,88.88
2018-08-14T20:07:54.233Z,88.61
2018-08-14T20:10:22.884Z,89.36
2018-08-14T20:12:51.498Z,89.82
2018-08-14T20:15:25.552Z,90.30
2018-08-14T20:17:54.340Z,90.06
2018-08-14T20:20:23.114Z,90.41
2018-08-14T20:22:52.792Z,89.72
2018-08-14T20:25:21.434Z,90.55
2018-08-14T20:27:50.153Z,90.06
2018-08-14T20:30:19.335Z,89.72
2018-08-14T20:32:47.924Z,90.43
2018-08-14T20:35:17.247Z,90.94
2018-08-14T20:37:46.546Z,90.59
2018-08-14T20:40:17.815Z,91.34
2018-08-14T20:42:48.353Z,90.48
2018-08-14T20:45:16.945Z,90.82
2018-08-14T20:47:45.656Z,92.33
2018-08-14T20:50:19.102Z,92.37
2018-08-14T20:52:48.117Z,92.15
2018-08-14T20:55:17.407Z,92.73
2018-08-14T20:57:46.175Z,92.73
2018-08-14T21:00:18.784Z,92.73
2018-08-14T21:02:50.242Z,91.97
2018-08-14T21:05:18.743Z,92.76
2018-08-14T21:07:47.885Z,92.49
2018-08-14T21:10:17.106Z,91.58
2018-08-14T21:12:45.767Z,92.09
2018-08-14T21:15:16.461Z,91.11
2018-08-14T21:17:46.217Z,90.41
2018-08-14T21:20:17.337Z,90.50
2018-08-14T21:22:46.606Z,90.79
2018-08-14T21:25:15.145Z,91.03
2018-08-14T21:27:43.629Z,91.66
2018-08-14T21:30:14.065Z,90.80
2018-08-14T21:32:42.941Z,90.66
2018-08-14T21:35:12.886Z,90.50
2018-08-14T21:37:41.322Z,91.53
2018-08-14T21:40:12.042Z,92.36
2018-08-14T21:42:40.734Z,92.79
2018-08-14T21:45:11.388Z,93.19
2018-08-14T21:47:40.029Z,92.53
2018-08-14T21:50:08.525Z,91.82
2018-08-14T21:52:37.509Z,90.98
2018-08-14T21:55:07.049Z,89.31
2018-08-14T21:57:35.559Z,88.64
2018-08-14T22:00:06.852Z,88.49
2018-08-14T22:02:35.330Z,87.71
2018-08-14T22:05:03.950Z,86.36
2018-08-14T22:07:32.354Z,86.52
2018-08-14T22:10:00.803Z,86.23
2018-08-14T22:12:29.419Z,86.45
2018-08-14T22:14:58.754Z,84.78
2018-08-14T22:17:28.034Z,84.47
2018-08-14T22:19:56.565Z,84.26
2018-08-14T22:22:25.045Z,85.58
2018-08-14T22:24:53.496Z,85.05
2018-08-14T22:27:21.974Z,84.92
2018-08-14T22:29:50.464Z,84.64
2018-08-14T22:32:18.997Z,84.71
2018-08-14T22:34:47.467Z,84.21
2018-08-14T22:37:16.012Z,85.61
2018-08-14T22:39:45.446Z,85.51
2018-08-14T22:42:13.881Z,86.10
2018-08-14T22:44:42.291Z,85.73
2018-08-14T22:47:10.733Z,85.50
2018-08-14T22:49:39.277Z,85.00
2018-08-14T22:52:07.749Z,85.81
2018-08-14T22:54:42.239Z,86.05
2018-08-14T22:57:10.657Z,85.53
2018-08-14T22:59:39.115Z,85.30
2018-08-14T23:02:07.607Z,85.16
2018-08-14T23:04:36.145Z,85.18
2018-08-14T23:07:04.773Z,85.69
2018-08-14T23:09:35.335Z,85.04
2018-08-14T23:12:03.845Z,84.83
2018-08-14T23:14:32.362Z,84.93
2018-08-14T23:17:00.838Z,86.36
2018-08-14T23:19:32.598Z,86.32
2018-08-14T23:22:01.129Z,86.13
2018-08-14T23:24:29.509Z,86.90
2018-08-14T23:26:57.991Z,87.89
2018-08-14T23:29:26.369Z,88.85
2018-08-14T23:31:54.799Z,89.94
2018-08-14T23:34:23.559Z,89.76
2018-08-14T23:36:54.070Z,89.74
2018-08-14T23:39:22.518Z,88.75
2018-08-14T23:41:50.938Z,88.74
2018-08-14T23:44:19.381Z,87.79
2018-08-14T23:46:47.803Z,87.35
2018-08-14T23:49:16.326Z,87.50
2018-08-14T23:51:44.804Z,86.24
2018-08-14T23:54:13.306Z,86.83
2018-08-14T23:56:41.989Z,86.97
2018-08-14T23:59:10.481Z,88.09
